createdAt,value
2022-12-19T00:01:04.822Z,5.33
2022-12-19T00:03:53.797Z,5.43
2022-12-19T00:06:43.461Z,5.27
2022-12-19T00:09:30.592Z,4.27
2022-12-19T00:12:20.034Z,6.30
2022-12-19T00:15:07.126Z,5.70
2022-12-19T00:17:53.424Z,5.63
2022-12-19T00:20:39.493Z,6.47
2022-12-19T00:23:25.936Z,5.67
2022-12-19T00:26:13.551Z,5.17
2022-12-19T00:29:02.495Z,6.27
2022-12-19T00:31:48.999Z,5.60
2022-12-19T00:34:35.658Z,5.23
2022-12-19T00:37:21.767Z,6.57
2022-12-19T00:40:08.597Z,6.30
2022-12-19T00:42:54.914Z,5.27
2022-12-19T00:45:44.711Z,5.63
2022-12-19T00:48:31.550Z,5.83
2022-12-19T00:51:18.718Z,6.83
2022-12-19T00:54:07.263Z,6.30
2022-12-19T00:56:54.754Z,7.23
2022-12-19T00:59:41.655Z,5.67
2022-12-19T01:02:29.815Z,5.17
2022-12-19T01:05:16.176Z,5.00
2022-12-19T01:08:02.441Z,6.60
2022-12-19T01:10:49.161Z,6.13
2022-12-19T01:13:35.176Z,6.93
2022-12-19T01:16:24.176Z,5.07
2022-12-19T01:19:12.243Z,5.43
2022-12-19T01:21:58.520Z,5.70
2022-12-19T01:24:45.294Z,5.43
2022-12-19T01:27:31.503Z,5.47
2022-12-19T01:30:17.844Z,5.03
2022-12-19T01:33:05.141Z,6.97
2022-12-19T01:35:52.878Z,6.03
2022-12-19T01:38:39.321Z,6.40
2022-12-19T01:41:26.419Z,6.00
2022-12-19T01:44:12.807Z,6.97
2022-12-19T01:46:59.613Z,5.07
2022-12-19T01:49:45.936Z,5.37
2022-12-19T01:52:34.058Z,6.13
2022-12-19T01:55:20.957Z,6.70
2022-12-19T01:58:07.625Z,6.20
2022-12-19T02:00:54.163Z,5.87
2022-12-19T02:03:40.950Z,6.63
2022-12-19T02:06:27.795Z,6.43
2022-12-19T02:09:15.698Z,7.47
2022-12-19T02:12:02.116Z,6.87
2022-12-19T02:14:49.071Z,6.10
2022-12-19T02:17:39.866Z,6.97
2022-12-19T02:20:47.070Z,6.00
2022-12-19T02:23:59.333Z,4.53
2022-12-19T02:27:01.752Z,5.87
2022-12-19T02:30:05.919Z,6.83
2022-12-19T02:32:59.519Z,5.17
2022-12-19T02:35:48.233Z,5.77
2022-12-19T02:38:38.249Z,5.47
2022-12-19T02:41:27.305Z,7.20
2022-12-19T02:44:15.541Z,5.53
2022-12-19T02:47:03.911Z,6.80
2022-12-19T02:49:51.630Z,6.10
2022-12-19T02:52:45.740Z,6.63
2022-12-19T02:55:34.992Z,5.27
2022-12-19T02:58:46.185Z,5.97
2022-12-19T03:01:41.271Z,5.40
2022-12-19T03:04:32.936Z,6.07
2022-12-19T03:07:25.771Z,6.40
2022-12-19T03:10:16.104Z,6.67
2022-12-19T03:13:03.973Z,7.40
2022-12-19T03:15:50.312Z,5.27
2022-12-19T03:18:36.611Z,5.37
2022-12-19T03:21:24.401Z,4.67
2022-12-19T03:24:13.096Z,5.30
2022-12-19T03:27:02.536Z,4.57
2022-12-19T03:29:51.779Z,5.57
2022-12-19T03:32:39.814Z,6.07
2022-12-19T03:35:27.797Z,5.00
2022-12-19T03:38:15.192Z,5.47
2022-12-19T03:41:03.745Z,6.87
2022-12-19T03:43:49.055Z,5.53
2022-12-19T03:46:36.723Z,5.07
2022-12-19T03:49:23.942Z,4.50
2022-12-19T03:52:13.765Z,6.57
2022-12-19T03:55:02.918Z,6.10
2022-12-19T03:57:52.573Z,5.17
2022-12-19T04:00:40.026Z,5.63
2022-12-19T04:03:26.710Z,4.13
2022-12-19T04:06:14.501Z,5.93
2022-12-19T04:09:01.290Z,5.57
2022-12-19T04:11:50.760Z,5.57
2022-12-19T04:14:39.807Z,4.43
2022-12-19T04:17:29.716Z,6.23
2022-12-19T04:20:16.948Z,5.97
2022-12-19T04:23:05.555Z,9.23
2022-12-19T04:25:53.794Z,6.27
2022-12-19T04:28:43.678Z,6.30
2022-12-19T04:31:32.253Z,8.10
2022-12-19T04:34:20.730Z,6.83
2022-12-19T04:37:07.577Z,6.37
2022-12-19T04:39:54.503Z,6.77
2022-12-19T04:42:40.745Z,8.17
2022-12-19T04:45:27.102Z,7.80
2022-12-19T04:48:15.267Z,5.63
2022-12-19T04:51:01.700Z,6.10
2022-12-19T04:53:47.857Z,5.50
2022-12-19T04:56:34.086Z,5.87
2022-12-19T04:59:21.073Z,6.10
2022-12-19T05:02:07.474Z,15.30
2022-12-19T05:04:55.607Z,9.67
2022-12-19T05:07:41.944Z,8.07
2022-12-19T05:10:28.046Z,6.13
2022-12-19T05:13:14.275Z,6.03
2022-12-19T05:16:01.361Z,6.60
2022-12-19T05:18:47.906Z,5.53
2022-12-19T05:21:35.561Z,5.27
2022-12-19T05:24:22.007Z,6.57
2022-12-19T05:27:08.237Z,6.87
2022-12-19T05:29:54.426Z,6.03
2022-12-19T05:32:40.759Z,4.90
2022-12-19T05:35:27.173Z,5.60
2022-12-19T05:38:14.879Z,7.60
2022-12-19T05:41:01.989Z,6.47
2022-12-19T05:43:50.912Z,9.63
2022-12-19T05:46:37.433Z,9.60
2022-12-19T05:49:24.189Z,6.60
2022-12-19T05:52:11.581Z,5.33
2022-12-19T05:55:00.185Z,5.70
2022-12-19T05:57:46.657Z,6.97
2022-12-19T06:00:33.305Z,5.27
2022-12-19T06:03:19.429Z,5.77
2022-12-19T06:06:06.685Z,5.90
2022-12-19T06:08:54.140Z,5.40
2022-12-19T06:11:41.877Z,6.03
2022-12-19T06:14:28.223Z,6.50
2022-12-19T06:17:14.497Z,5.67
2022-12-19T06:20:00.644Z,6.13
2022-12-19T06:22:46.939Z,7.07
2022-12-19T06:25:33.392Z,5.67
2022-12-19T06:28:21.091Z,3.90
2022-12-19T06:31:07.948Z,5.73
2022-12-19T06:33:55.996Z,7.30
2022-12-19T06:36:42.360Z,4.97
2022-12-19T06:39:28.904Z,5.77
2022-12-19T06:42:23.013Z,5.67
2022-12-19T06:45:11.483Z,4.70
2022-12-19T06:47:57.765Z,4.67
2022-12-19T06:50:45.927Z,6.00
2022-12-19T06:53:32.118Z,5.50
2022-12-19T06:56:18.983Z,5.73
2022-12-19T06:59:05.698Z,6.83
2022-12-19T07:01:57.147Z,9.30
2022-12-19T07:04:48.604Z,7.03
2022-12-19T07:07:35.045Z,8.07
2022-12-19T07:10:21.310Z,11.03
2022-12-19T07:13:08.124Z,6.87
2022-12-19T07:15:55.608Z,7.23
2022-12-19T07:18:43.558Z,7.93
2022-12-19T07:21:30.460Z,7.53
2022-12-19T07:24:16.970Z,7.70
2022-12-19T07:27:03.388Z,6.23
2022-12-19T07:29:49.421Z,6.67
2022-12-19T07:32:35.705Z,7.03
2022-12-19T07:35:23.796Z,10.60
2022-12-19T07:38:10.038Z,7.00
2022-12-19T07:40:56.753Z,5.97
2022-12-19T07:43:43.085Z,7.07
2022-12-19T07:46:29.753Z,8.30
2022-12-19T07:49:22.316Z,5.77
2022-12-19T07:52:10.525Z,6.60
2022-12-19T07:54:56.970Z,6.73
2022-12-19T07:57:43.577Z,23.73
2022-12-19T08:00:30.676Z,30.90
2022-12-19T08:03:17.310Z,8.60
2022-12-19T08:06:04.806Z,6.87
2022-12-19T08:08:52.603Z,7.07
2022-12-19T08:11:39.171Z,7.07
2022-12-19T08:14:25.670Z,8.20
2022-12-19T08:17:20.218Z,4.83
2022-12-19T08:20:08.143Z,6.90
2022-12-19T08:22:54.316Z,5.97
2022-12-19T08:25:42.226Z,5.93
2022-12-19T08:28:28.898Z,6.47
2022-12-19T08:31:16.264Z,6.77
2022-12-19T08:34:02.740Z,7.27
2022-12-19T08:36:48.867Z,5.23
2022-12-19T08:39:34.978Z,5.73
2022-12-19T08:42:22.869Z,4.97
2022-12-19T08:45:09.917Z,5.60
2022-12-19T08:47:56.881Z,7.07
2022-12-19T08:50:49.849Z,6.73
2022-12-19T08:53:37.013Z,7.90
2022-12-19T08:56:23.470Z,6.97
2022-12-19T08:59:11.082Z,6.67
2022-12-19T09:01:59.828Z,5.37
2022-12-19T09:05:59.778Z,6.43
2022-12-19T09:07:54.128Z,6.13
2022-12-19T09:10:41.533Z,5.67
2022-12-19T09:13:28.168Z,4.60
2022-12-19T09:16:16.593Z,6.43
2022-12-19T09:19:02.878Z,5.00
2022-12-19T09:21:49.082Z,4.33
2022-12-19T09:24:35.162Z,4.20
2022-12-19T09:27:21.355Z,4.87
2022-12-19T09:30:09.523Z,5.33
2022-12-19T09:32:57.399Z,4.33
2022-12-19T09:35:50.328Z,5.23
2022-12-19T09:38:38.439Z,4.77
2022-12-19T09:41:38.430Z,4.93
2022-12-19T09:44:32.131Z,4.13
2022-12-19T09:47:19.444Z,2.47
2022-12-19T09:50:13.626Z,3.70
2022-12-19T09:53:03.126Z,4.67
2022-12-19T09:55:49.657Z,4.00
2022-12-19T09:58:38.720Z,5.57
2022-12-19T10:01:26.972Z,5.63
2022-12-19T10:04:14.285Z,3.47
2022-12-19T10:07:21.141Z,4.70
2022-12-19T10:12:36.307Z,4.47
2022-12-19T10:13:27.062Z,4.57
2022-12-19T10:16:16.899Z,7.93
2022-12-19T10:19:05.018Z,6.33
2022-12-19T10:25:12.145Z,4.63
2022-12-19T10:28:02.537Z,4.63
2022-12-19T10:30:52.388Z,5.30
2022-12-19T10:33:41.932Z,5.97
2022-12-19T10:36:55.746Z,6.23
2022-12-19T10:39:42.116Z,5.77
2022-12-19T10:42:33.633Z,4.40
2022-12-19T10:45:20.353Z,4.83
2022-12-19T10:48:10.237Z,4.80
2022-12-19T10:50:56.605Z,4.80
2022-12-19T10:53:53.746Z,3.80
2022-12-19T10:56:40.147Z,3.73
2022-12-19T10:59:28.161Z,4.27
2022-12-19T11:02:23.540Z,4.70
2022-12-19T11:18:38.547Z,4.57
2022-12-19T11:28:24.543Z,3.07
2022-12-19T11:29:34.083Z,5.30
2022-12-19T11:29:36.674Z,3.20
2022-12-19T11:29:45.794Z,4.43
2022-12-19T11:33:47.090Z,3.47
2022-12-19T11:36:37.685Z,3.73
2022-12-19T11:39:27.182Z,4.17
2022-12-19T11:42:16.887Z,3.70
2022-12-19T11:45:06.340Z,3.50
2022-12-19T11:47:56.392Z,5.60
2022-12-19T11:50:46.225Z,3.40
2022-12-19T11:53:34.651Z,3.47
2022-12-19T11:56:23.099Z,3.97
2022-12-19T11:59:13.913Z,4.77
2022-12-19T12:05:23.589Z,4.30
2022-12-19T12:09:03.288Z,4.37
2022-12-19T12:16:17.190Z,4.17
2022-12-19T12:26:30.579Z,3.50
2022-12-19T12:30:41.674Z,4.20
2022-12-19T12:31:22.343Z,4.47
2022-12-19T12:31:46.931Z,3.70
2022-12-19T12:31:47.725Z,3.40
2022-12-19T12:31:55.331Z,6.87
2022-12-19T12:37:08.232Z,4.20
2022-12-19T12:43:36.279Z,4.37
2022-12-19T12:46:24.493Z,4.40
2022-12-19T12:49:23.017Z,5.27
2022-12-19T12:52:10.495Z,4.43
2022-12-19T12:54:57.574Z,4.50
2022-12-19T12:57:48.289Z,4.13
2022-12-19T13:00:35.465Z,6.30
2022-12-19T13:03:25.920Z,4.97
2022-12-19T13:06:25.485Z,3.47
2022-12-19T13:09:22.354Z,3.83
2022-12-19T13:12:34.116Z,4.17
2022-12-19T13:15:41.627Z,4.70
2022-12-19T13:18:34.051Z,4.37
2022-12-19T13:21:20.400Z,3.20
2022-12-19T13:24:16.185Z,3.20
2022-12-19T13:27:02.985Z,2.50
2022-12-19T13:29:54.942Z,4.67
2022-12-19T13:32:55.998Z,2.83
2022-12-19T13:39:31.605Z,2.77
2022-12-19T13:39:59.623Z,3.93
2022-12-19T13:42:21.300Z,3.53
2022-12-19T13:45:10.088Z,4.70
2022-12-19T13:47:58.148Z,4.23
2022-12-19T13:50:49.443Z,3.53
2022-12-19T13:53:36.748Z,3.40
2022-12-19T13:56:23.232Z,5.80
2022-12-19T13:59:10.809Z,6.43
2022-12-19T14:02:06.798Z,5.93
2022-12-19T14:04:53.565Z,3.93
2022-12-19T14:07:42.361Z,3.60
2022-12-19T14:11:33.429Z,4.27
2022-12-19T14:14:04.860Z,3.20
2022-12-19T14:16:56.965Z,3.00
2022-12-19T14:19:44.475Z,4.33
2022-12-19T14:22:30.697Z,3.93
2022-12-19T14:28:14.535Z,4.53
2022-12-19T14:28:30.049Z,3.97
2022-12-19T14:31:18.086Z,3.53
2022-12-19T14:34:35.706Z,3.07
2022-12-19T14:38:19.397Z,3.40
2022-12-19T14:41:00.094Z,2.87
2022-12-19T14:43:57.277Z,6.90
2022-12-19T14:54:12.391Z,3.60
2022-12-19T14:54:17.515Z,4.37
2022-12-19T14:54:42.091Z,2.83
2022-12-19T14:56:59.065Z,2.73
2022-12-19T14:59:47.833Z,2.73
2022-12-19T15:02:34.457Z,2.80
2022-12-19T15:05:21.487Z,3.13
2022-12-19T15:08:10.931Z,3.57
2022-12-19T15:11:14.823Z,2.93
2022-12-19T15:14:51.285Z,3.43
2022-12-19T15:17:21.593Z,3.17
2022-12-19T15:20:10.432Z,3.10
2022-12-19T15:22:56.567Z,3.30
2022-12-19T15:26:03.189Z,4.27
2022-12-19T15:28:50.830Z,3.83
2022-12-19T15:31:39.837Z,3.30
2022-12-19T15:34:39.231Z,4.93
2022-12-19T15:37:28.055Z,4.30
2022-12-19T15:40:15.472Z,3.97
2022-12-19T15:43:02.244Z,6.43
2022-12-19T15:45:48.338Z,15.50
2022-12-19T15:48:37.523Z,5.00
2022-12-19T15:51:24.175Z,4.90
2022-12-19T15:54:46.496Z,4.47
2022-12-19T15:57:20.854Z,5.33
2022-12-19T16:00:09.165Z,3.50
2022-12-19T16:03:22.659Z,5.57
2022-12-19T16:06:04.040Z,3.03
2022-12-19T16:08:50.603Z,3.57
2022-12-19T16:11:36.662Z,3.93
2022-12-19T16:14:25.250Z,3.27
2022-12-19T16:17:13.427Z,3.00
2022-12-19T16:20:00.035Z,2.80
2022-12-19T16:22:47.641Z,2.90
2022-12-19T16:25:35.673Z,2.93
2022-12-19T16:28:25.555Z,3.90
2022-12-19T16:31:15.303Z,3.27
2022-12-19T16:34:02.523Z,4.33
2022-12-19T16:36:49.071Z,4.90
2022-12-19T16:39:36.723Z,2.77
2022-12-19T16:42:23.206Z,5.00
2022-12-19T16:45:17.511Z,5.27
2022-12-19T16:48:03.937Z,4.73
2022-12-19T16:50:51.060Z,3.70
2022-12-19T16:53:37.271Z,5.00
2022-12-19T16:56:26.624Z,3.40
2022-12-19T16:59:15.258Z,4.30
2022-12-19T17:02:01.896Z,3.97
2022-12-19T17:04:53.827Z,3.17
2022-12-19T17:07:40.839Z,3.90
2022-12-19T17:10:29.951Z,3.43
2022-12-19T17:13:18.836Z,3.53
2022-12-19T17:16:05.401Z,3.10
2022-12-19T17:18:51.884Z,4.03
2022-12-19T17:21:38.089Z,3.97
2022-12-19T17:24:24.945Z,3.60
2022-12-19T17:27:11.103Z,3.00
2022-12-19T17:29:58.633Z,4.23
2022-12-19T17:32:47.022Z,3.97
2022-12-19T17:35:36.012Z,2.60
2022-12-19T17:38:22.189Z,1.93
2022-12-19T17:41:13.382Z,3.63
2022-12-19T17:43:59.631Z,3.53
2022-12-19T17:46:48.310Z,4.47
2022-12-19T17:49:34.701Z,4.13
2022-12-19T17:52:21.064Z,2.50
2022-12-19T17:55:14.258Z,3.13
2022-12-19T17:58:01.139Z,2.43
2022-12-19T18:00:48.280Z,3.10
2022-12-19T18:03:36.091Z,3.57
2022-12-19T18:06:22.689Z,2.70
2022-12-19T18:09:15.998Z,4.40
2022-12-19T18:12:02.319Z,4.07
2022-12-19T18:14:50.863Z,4.60
2022-12-19T18:17:38.065Z,3.13
2022-12-19T18:20:31.598Z,3.50
2022-12-19T18:23:19.295Z,3.53
2022-12-19T18:26:05.623Z,3.17
2022-12-19T18:28:51.690Z,4.67
2022-12-19T18:31:38.881Z,3.07
2022-12-19T18:34:27.030Z,2.60
2022-12-19T18:37:15.889Z,2.90
2022-12-19T18:40:02.356Z,2.93
2022-12-19T18:42:48.691Z,3.23
2022-12-19T18:45:36.396Z,3.03
2022-12-19T18:48:25.927Z,4.23
2022-12-19T18:51:14.942Z,3.63
2022-12-19T18:54:02.908Z,3.93
2022-12-19T18:56:49.494Z,3.97
2022-12-19T18:59:35.694Z,4.10
2022-12-19T19:02:26.645Z,5.70
2022-12-19T19:05:15.224Z,9.00
2022-12-19T19:08:03.231Z,3.23
2022-12-19T19:10:51.708Z,6.57
2022-12-19T19:13:38.159Z,4.37
2022-12-19T19:16:26.128Z,5.77
2022-12-19T19:19:15.520Z,6.90
2022-12-19T19:22:02.125Z,6.87
2022-12-19T19:24:48.757Z,5.87
2022-12-19T19:27:36.804Z,13.77
2022-12-19T19:30:23.470Z,4.00
2022-12-19T19:33:11.848Z,3.40
2022-12-19T19:36:00.480Z,3.03
2022-12-19T19:38:50.778Z,3.87
2022-12-19T19:41:37.322Z,9.67
2022-12-19T19:44:24.937Z,5.03
2022-12-19T19:47:11.492Z,5.07
2022-12-19T19:49:57.756Z,9.60
2022-12-19T19:52:43.899Z,7.30
2022-12-19T19:55:30.202Z,4.90
2022-12-19T19:58:16.320Z,6.17
2022-12-19T20:01:07.491Z,5.63
2022-12-19T20:03:53.778Z,5.30
2022-12-19T20:06:40.592Z,4.90
2022-12-19T20:09:27.021Z,2.93
2022-12-19T20:12:14.201Z,3.40
2022-12-19T20:15:00.571Z,3.90
2022-12-19T20:17:48.152Z,2.60
2022-12-19T20:20:34.817Z,4.13
2022-12-19T20:23:21.406Z,3.27
2022-12-19T20:26:08.338Z,3.27
2022-12-19T20:28:54.664Z,3.23
2022-12-19T20:31:40.907Z,3.70
2022-12-19T20:34:28.964Z,3.97
2022-12-19T20:37:15.838Z,3.00
2022-12-19T20:40:02.342Z,2.90
2022-12-19T20:42:48.608Z,2.77
2022-12-19T20:45:34.894Z,2.60
2022-12-19T20:48:21.585Z,3.43
2022-12-19T20:51:10.067Z,3.40
2022-12-19T20:53:56.822Z,3.17
2022-12-19T20:56:43.028Z,3.37
2022-12-19T20:59:29.244Z,3.43
2022-12-19T21:02:15.427Z,3.27
2022-12-19T21:05:01.925Z,2.50
2022-12-19T21:07:50.124Z,3.63
2022-12-19T21:10:36.995Z,2.87
2022-12-19T21:13:24.285Z,2.97
2022-12-19T21:16:12.232Z,2.97
2022-12-19T21:18:58.760Z,3.10
2022-12-19T21:21:44.862Z,3.30
2022-12-19T21:24:33.076Z,3.33
2022-12-19T21:27:19.391Z,2.80
2022-12-19T21:30:06.132Z,2.77
2022-12-19T21:32:52.939Z,3.93
2022-12-19T21:35:39.229Z,3.10
2022-12-19T21:38:25.672Z,2.50
2022-12-19T21:41:18.597Z,2.33
2022-12-19T21:44:05.064Z,1.13
2022-12-19T21:46:51.295Z,2.90
2022-12-19T21:49:37.964Z,2.73
2022-12-19T21:52:24.146Z,3.33
2022-12-19T21:55:11.012Z,2.63
2022-12-19T21:58:00.373Z,3.00
2022-12-19T22:00:46.894Z,2.43
2022-12-19T22:03:33.647Z,2.13
2022-12-19T22:06:27.305Z,2.87
2022-12-19T22:09:16.248Z,2.90
2022-12-19T22:12:02.467Z,3.10
2022-12-19T22:14:50.068Z,2.83
2022-12-19T22:17:36.741Z,3.03
2022-12-19T22:20:23.389Z,2.53
2022-12-19T22:23:13.361Z,3.70
2022-12-19T22:26:09.417Z,2.90
2022-12-19T22:28:56.762Z,1.87
2022-12-19T22:31:45.905Z,2.90
2022-12-19T22:34:33.066Z,2.53
2022-12-19T22:37:19.595Z,2.77
2022-12-19T22:40:07.638Z,2.13
2022-12-19T22:42:54.062Z,2.17
2022-12-19T22:45:40.501Z,2.73
2022-12-19T22:48:28.438Z,1.70
2022-12-19T22:51:15.271Z,2.03
2022-12-19T22:54:01.825Z,3.10
2022-12-19T22:56:50.784Z,2.13
2022-12-19T22:59:37.110Z,2.90
2022-12-19T23:02:23.532Z,3.07
2022-12-19T23:05:11.411Z,2.47
2022-12-19T23:07:57.790Z,3.17
2022-12-19T23:10:44.371Z,3.07
2022-12-19T23:13:30.469Z,3.20
2022-12-19T23:16:17.005Z,2.47
2022-12-19T23:19:03.580Z,3.47
2022-12-19T23:21:51.262Z,2.43
2022-12-19T23:24:37.787Z,2.23
2022-12-19T23:27:24.494Z,2.57
2022-12-19T23:30:11.386Z,2.43
2022-12-19T23:32:57.537Z,3.07
2022-12-19T23:35:43.994Z,2.37
2022-12-19T23:38:31.956Z,2.87
2022-12-19T23:41:18.382Z,3.53
2022-12-19T23:44:05.114Z,3.03
2022-12-19T23:46:51.382Z,2.77
2022-12-19T23:49:37.533Z,2.07
2022-12-19T23:52:24.314Z,2.63
2022-12-19T23:55:12.407Z,2.90
2022-12-19T23:57:58.822Z,3.33
